sensor_id;sensor_type;location;lat;lon;timestamp;P1;durP1;ratioP1;P2;durP2;ratioP2
23258;SDS011;11798;51.528;7.240;2023-06-14T03:37:44;6.93;;;4.47;;
23258;SDS011;11798;51.528;7.240;2023-06-14T03:40:11;5.07;;;4.30;;
23258;SDS011;11798;51.528;7.240;2023-06-14T03:42:38;5.17;;;4.13;;
23258;SDS011;11798;51.528;7.240;2023-06-14T03:45:04;8.53;;;3.90;;
23258;SDS011;11798;51.528;7.240;2023-06-14T03:47:31;7.00;;;3.90;;
23258;SDS011;11798;51.528;7.240;2023-06-14T11:47:55;3.75;;;2.53;;
23258;SDS011;11798;51.528;7.240;2023-06-14T11:50:21;2.70;;;2.28;;
23258;SDS011;11798;51.528;7.240;2023-06-14T11:52:53;4.72;;;2.97;;
23258;SDS011;11798;51.528;7.240;2023-06-14T11:55:21;4.25;;;2.72;;
23258;SDS011;11798;51.528;7.240;2023-06-14T11:57:47;5.05;;;2.70;;
23258;SDS011;11798;51.528;7.240;2023-06-14T12:00:13;5.40;;;2.58;;
23258;SDS011;11798;51.528;7.240;2023-06-14T12:02:40;4.30;;;2.70;;
23258;SDS011;11798;51.528;7.240;2023-06-14T12:05:06;3.50;;;2.55;;
23258;SDS011;11798;51.528;7.240;2023-06-14T12:07:38;3.97;;;2.60;;
23258;SDS011;11798;51.528;7.240;2023-06-14T12:10:09;4.15;;;2.97;;
23258;SDS011;11798;51.528;7.240;2023-06-14T12:12:38;3.22;;;2.92;;
23258;SDS011;11798;51.528;7.240;2023-06-14T12:15:08;4.55;;;2.60;;
23258;SDS011;11798;51.528;7.240;2023-06-14T12:17:36;2.83;;;2.63;;
23258;SDS011;11798;51.528;7.240;2023-06-14T12:20:13;3.25;;;2.47;;
23258;SDS011;11798;51.528;7.240;2023-06-14T12:22:47;2.80;;;2.60;;
23258;SDS011;11798;51.528;7.240;2023-06-14T12:25:26;3.92;;;3.00;;
23258;SDS011;11798;51.528;7.240;2023-06-14T12:28:06;5.85;;;2.85;;
23258;SDS011;11798;51.528;7.240;2023-06-14T12:30:34;3.95;;;2.42;;
23258;SDS011;11798;51.528;7.240;2023-06-14T12:33:01;4.40;;;3.03;;
23258;SDS011;11798;51.528;7.240;2023-06-14T12:35:28;3.22;;;2.80;;
23258;SDS011;11798;51.528;7.240;2023-06-14T12:37:53;3.60;;;2.67;;
23258;SDS011;11798;51.528;7.240;2023-06-14T12:40:19;3.40;;;2.65;;
23258;SDS011;11798;51.528;7.240;2023-06-14T12:42:44;3.83;;;2.70;;
23258;SDS011;11798;51.528;7.240;2023-06-14T12:45:12;6.93;;;2.88;;
23258;SDS011;11798;51.528;7.240;2023-06-14T12:47:38;3.83;;;2.40;;
23258;SDS011;11798;51.528;7.240;2023-06-14T12:50:04;4.50;;;2.90;;
23258;SDS011;11798;51.528;7.240;2023-06-14T12:52:30;3.72;;;2.60;;
23258;SDS011;11798;51.528;7.240;2023-06-14T12:54:56;3.08;;;2.67;;
23258;SDS011;11798;51.528;7.240;2023-06-14T12:57:22;3.47;;;2.47;;
23258;SDS011;11798;51.528;7.240;2023-06-14T12:59:48;4.22;;;2.55;;
23258;SDS011;11798;51.528;7.240;2023-06-14T13:02:15;2.88;;;2.30;;
23258;SDS011;11798;51.528;7.240;2023-06-14T13:04:42;3.22;;;2.60;;
23258;SDS011;11798;51.528;7.240;2023-06-14T13:07:08;3.08;;;2.78;;
23258;SDS011;11798;51.528;7.240;2023-06-14T13:09:35;4.45;;;2.70;;
23258;SDS011;11798;51.528;7.240;2023-06-14T13:12:01;3.67;;;2.63;;
23258;SDS011;11798;51.528;7.240;2023-06-14T13:14:27;4.32;;;3.03;;
23258;SDS011;11798;51.528;7.240;2023-06-14T13:16:52;3.53;;;2.67;;
23258;SDS011;11798;51.528;7.240;2023-06-14T13:19:18;4.13;;;2.67;;
23258;SDS011;11798;51.528;7.240;2023-06-14T13:21:43;2.97;;;2.78;;
23258;SDS011;11798;51.528;7.240;2023-06-14T13:24:09;3.53;;;2.53;;
23258;SDS011;11798;51.528;7.240;2023-06-14T13:26:35;4.00;;;2.90;;
23258;SDS011;11798;51.528;7.240;2023-06-14T13:29:00;3.22;;;2.55;;
23258;SDS011;11798;51.528;7.240;2023-06-14T13:31:26;5.10;;;2.92;;
23258;SDS011;11798;51.528;7.240;2023-06-14T13:33:51;4.10;;;3.00;;
23258;SDS011;11798;51.528;7.240;2023-06-14T13:36:17;4.35;;;2.80;;
23258;SDS011;11798;51.528;7.240;2023-06-14T13:38:43;3.95;;;2.95;;
23258;SDS011;11798;51.528;7.240;2023-06-14T13:41:08;3.92;;;3.00;;
23258;SDS011;11798;51.528;7.240;2023-06-14T13:43:34;5.10;;;2.78;;
23258;SDS011;11798;51.528;7.240;2023-06-14T13:46:00;3.47;;;2.95;;
23258;SDS011;11798;51.528;7.240;2023-06-14T13:48:25;3.50;;;2.80;;
23258;SDS011;11798;51.528;7.240;2023-06-14T13:50:51;5.47;;;2.90;;
23258;SDS011;11798;51.528;7.240;2023-06-14T13:53:17;4.65;;;2.95;;
23258;SDS011;11798;51.528;7.240;2023-06-14T13:55:43;3.80;;;2.83;;
23258;SDS011;11798;51.528;7.240;2023-06-14T13:58:08;3.42;;;2.72;;
23258;SDS011;11798;51.528;7.240;2023-06-14T14:00:34;4.82;;;2.88;;
23258;SDS011;11798;51.528;7.240;2023-06-14T14:03:02;5.22;;;2.58;;
23258;SDS011;11798;51.528;7.240;2023-06-14T14:05:28;4.72;;;2.97;;
23258;SDS011;11798;51.528;7.240;2023-06-14T14:07:54;5.22;;;2.92;;
23258;SDS011;11798;51.528;7.240;2023-06-14T14:10:21;4.47;;;2.90;;
23258;SDS011;11798;51.528;7.240;2023-06-14T14:12:48;4.95;;;2.70;;
23258;SDS011;11798;51.528;7.240;2023-06-14T14:15:14;4.00;;;3.10;;
23258;SDS011;11798;51.528;7.240;2023-06-14T14:17:40;5.50;;;3.05;;
23258;SDS011;11798;51.528;7.240;2023-06-14T14:20:06;5.03;;;2.85;;
23258;SDS011;11798;51.528;7.240;2023-06-14T14:22:32;4.18;;;2.92;;
23258;SDS011;11798;51.528;7.240;2023-06-14T14:24:58;3.42;;;3.03;;
23258;SDS011;11798;51.528;7.240;2023-06-14T14:27:23;4.78;;;2.80;;
23258;SDS011;11798;51.528;7.240;2023-06-14T14:29:49;2.80;;;2.60;;
23258;SDS011;11798;51.528;7.240;2023-06-14T14:32:14;2.50;;;2.25;;
23258;SDS011;11798;51.528;7.240;2023-06-14T14:34:40;4.30;;;2.92;;
23258;SDS011;11798;51.528;7.240;2023-06-14T14:39:31;5.32;;;2.67;;
23258;SDS011;11798;51.528;7.240;2023-06-14T15:03:47;3.95;;;2.47;;
23258;SDS011;11798;51.528;7.240;2023-06-14T15:35:26;2.60;;;2.40;;
23258;SDS011;11798;51.528;7.240;2023-06-14T15:37:52;3.13;;;2.83;;
23258;SDS011;11798;51.528;7.240;2023-06-14T15:40:17;2.85;;;2.65;;
23258;SDS011;11798;51.528;7.240;2023-06-14T15:42:43;3.10;;;2.58;;
23258;SDS011;11798;51.528;7.240;2023-06-14T15:45:09;4.70;;;2.75;;
23258;SDS011;11798;51.528;7.240;2023-06-14T15:47:35;2.70;;;2.50;;
23258;SDS011;11798;51.528;7.240;2023-06-14T15:50:00;2.60;;;2.40;;
23258;SDS011;11798;51.528;7.240;2023-06-14T15:52:26;3.40;;;2.75;;
23258;SDS011;11798;51.528;7.240;2023-06-14T15:54:51;3.40;;;2.80;;
23258;SDS011;11798;51.528;7.240;2023-06-14T15:57:18;2.92;;;2.63;;
23258;SDS011;11798;51.528;7.240;2023-06-14T15:59:44;3.70;;;2.60;;
23258;SDS011;11798;51.528;7.240;2023-06-14T16:02:09;3.22;;;2.65;;
23258;SDS011;11798;51.528;7.240;2023-06-14T16:04:35;3.63;;;2.50;;
23258;SDS011;11798;51.528;7.240;2023-06-14T16:07:00;3.67;;;2.80;;
23258;SDS011;11798;51.528;7.240;2023-06-14T16:09:26;3.97;;;3.00;;
23258;SDS011;11798;51.528;7.240;2023-06-14T16:11:51;2.92;;;2.70;;
23258;SDS011;11798;51.528;7.240;2023-06-14T16:14:18;2.83;;;2.53;;
23258;SDS011;11798;51.528;7.240;2023-06-14T16:16:44;2.70;;;2.47;;
23258;SDS011;11798;51.528;7.240;2023-06-14T16:19:11;3.42;;;2.70;;
23258;SDS011;11798;51.528;7.240;2023-06-14T16:21:37;4.75;;;2.90;;
23258;SDS011;11798;51.528;7.240;2023-06-14T16:24:03;3.38;;;2.60;;
23258;SDS011;11798;51.528;7.240;2023-06-14T16:26:29;5.60;;;2.92;;
23258;SDS011;11798;51.528;7.240;2023-06-14T16:28:55;2.90;;;2.70;;
23258;SDS011;11798;51.528;7.240;2023-06-14T16:31:20;2.80;;;2.60;;
23258;SDS011;11798;51.528;7.240;2023-06-14T16:33:47;3.20;;;2.80;;
23258;SDS011;11798;51.528;7.240;2023-06-14T16:36:19;3.28;;;2.83;;
23258;SDS011;11798;51.528;7.240;2023-06-14T16:38:45;3.38;;;2.78;;
23258;SDS011;11798;51.528;7.240;2023-06-14T16:41:11;4.90;;;2.85;;
23258;SDS011;11798;51.528;7.240;2023-06-14T16:43:38;6.43;;;3.35;;
23258;SDS011;11798;51.528;7.240;2023-06-14T16:46:03;4.65;;;2.70;;
23258;SDS011;11798;51.528;7.240;2023-06-14T16:48:29;3.78;;;2.47;;
23258;SDS011;11798;51.528;7.240;2023-06-14T16:50:55;3.47;;;2.75;;
23258;SDS011;11798;51.528;7.240;2023-06-14T16:53:20;4.38;;;2.90;;
23258;SDS011;11798;51.528;7.240;2023-06-14T16:55:46;3.95;;;2.80;;
23258;SDS011;11798;51.528;7.240;2023-06-14T16:58:11;4.30;;;3.20;;
23258;SDS011;11798;51.528;7.240;2023-06-14T17:00:37;3.72;;;2.90;;
23258;SDS011;11798;51.528;7.240;2023-06-14T17:03:03;3.78;;;3.22;;
23258;SDS011;11798;51.528;7.240;2023-06-14T17:05:30;4.93;;;2.90;;
23258;SDS011;11798;51.528;7.240;2023-06-14T17:07:56;3.60;;;3.20;;
23258;SDS011;11798;51.528;7.240;2023-06-14T17:10:22;3.50;;;2.67;;
23258;SDS011;11798;51.528;7.240;2023-06-14T17:12:47;4.75;;;2.70;;
23258;SDS011;11798;51.528;7.240;2023-06-14T17:15:13;3.53;;;2.95;;
23258;SDS011;11798;51.528;7.240;2023-06-14T17:17:38;4.85;;;3.13;;
23258;SDS011;11798;51.528;7.240;2023-06-14T17:20:05;3.53;;;2.78;;
23258;SDS011;11798;51.528;7.240;2023-06-14T17:22:31;4.45;;;3.20;;
23258;SDS011;11798;51.528;7.240;2023-06-14T17:24:57;3.72;;;2.75;;
23258;SDS011;11798;51.528;7.240;2023-06-14T17:27:22;2.80;;;2.50;;
